Time;durP1;ratioP1;P1;durP2;ratioP2;P2;SDS_P1;SDS_P2;PMS_P1;PMS_P2;Temp;Humidity;BMP_temperature;BMP_pressure;BME280_temperature;BME280_humidity;BME280_pressure;Samples;Min_cycle;Max_cycle;Signal;HPM_P1;HPM_P2
2023/05/14 00:00:14;;;;;;;0.10;0.10;;;13.00;99.90;;;;;;5076183;28;20544;-82
2023/05/14 00:02:40;;;;;;;0.10;0.10;;;13.10;99.90;;;;;;5074133;28;20198;-82
2023/05/14 00:05:06;;;;;;;0.10;0.10;;;12.90;99.90;;;;;;5070949;28;20203;-82
2023/05/14 00:07:31;;;;;;;0.10;0.10;;;12.80;99.90;;;;;;5069756;28;22222;-82
2023/05/14 00:09:58;;;;;;;0.10;0.10;;;12.80;99.90;;;;;;5071511;28;20217;-82
2023/05/14 00:12:23;;;;;;;0.10;0.10;;;12.60;99.90;;;;;;5073784;28;20202;-82
2023/05/14 00:14:49;;;;;;;0.10;0.10;;;12.50;99.90;;;;;;5072407;28;20178;-82
2023/05/14 00:17:14;;;;;;;0.10;0.10;;;12.40;99.90;;;;;;5074597;28;20217;-83
2023/05/14 00:19:40;;;;;;;0.10;0.10;;;12.40;99.90;;;;;;5076200;28;20191;-82
2023/05/14 00:22:09;;;;;;;0.10;0.10;;;12.20;99.90;;;;;;5074415;28;20205;-82
2023/05/14 00:24:35;;;;;;;0.10;0.10;;;12.20;99.90;;;;;;5074164;28;20629;-82
2023/05/14 00:27:02;;;;;;;0.10;0.10;;;12.20;99.90;;;;;;5075388;28;20201;-83
2023/05/14 00:29:27;;;;;;;0.10;0.10;;;12.10;99.90;;;;;;5071984;28;20192;-82
2023/05/14 00:31:53;;;;;;;0.10;0.10;;;12.20;99.90;;;;;;5075020;28;20208;-82
2023/05/14 00:34:18;;;;;;;0.10;0.10;;;12.30;99.90;;;;;;5073860;28;20250;-82
2023/05/14 00:36:44;;;;;;;0.00;0.00;;;12.40;99.90;;;;;;5073519;28;20211;-82
2023/05/14 00:39:09;;;;;;;0.10;0.10;;;12.40;99.90;;;;;;5074367;28;20197;-82
2023/05/14 00:41:35;;;;;;;0.10;0.10;;;12.50;99.90;;;;;;5071345;28;20220;-82
2023/05/14 00:44:01;;;;;;;0.10;0.10;;;12.50;99.90;;;;;;5071258;28;20312;-82
2023/05/14 00:46:26;;;;;;;0.10;0.10;;;12.40;99.90;;;;;;5073517;28;20207;-82
2023/05/14 00:48:52;;;;;;;0.10;0.10;;;12.50;99.90;;;;;;5074906;28;20189;-82
2023/05/14 00:51:18;;;;;;;0.10;0.10;;;12.40;99.90;;;;;;5073787;28;20216;-81
2023/05/14 00:53:45;;;;;;;0.10;0.10;;;12.30;99.90;;;;;;5072493;28;20241;-82
2023/05/14 00:56:12;;;;;;;0.00;0.00;;;12.30;99.90;;;;;;5072511;28;20253;-82
2023/05/14 00:58:38;;;;;;;0.10;0.10;;;12.20;99.90;;;;;;5073240;28;20689;-82
2023/05/14 01:01:03;;;;;;;0.10;0.10;;;12.30;99.90;;;;;;5073520;28;20183;-82
2023/05/14 01:03:30;;;;;;;0.10;0.10;;;12.10;99.90;;;;;;5071560;28;20247;-82
2023/05/14 01:06:14;;;;;;;0.10;0.10;;;12.10;99.90;;;;;;5074885;28;20239;-82
2023/05/14 01:09:10;;;;;;;0.10;0.10;;;12.10;99.90;;;;;;5073282;28;20192;-82
2023/05/14 01:11:49;;;;;;;0.10;0.10;;;12.10;99.90;;;;;;5073832;28;20199;-82
2023/05/14 01:14:46;;;;;;;0.10;0.10;;;12.10;99.90;;;;;;5072108;28;20176;-83
2023/05/14 01:17:14;;;;;;;0.10;0.10;;;12.00;99.90;;;;;;5072719;28;21471;-82
2023/05/14 01:19:42;;;;;;;0.10;0.10;;;11.90;99.90;;;;;;5072086;28;20656;-82
2023/05/14 01:22:08;;;;;;;0.10;0.10;;;11.80;99.90;;;;;;5075202;28;20197;-82
2023/05/14 01:24:34;;;;;;;0.10;0.10;;;11.90;99.90;;;;;;5073328;28;20185;-83
2023/05/14 01:27:17;;;;;;;0.10;0.10;;;11.80;99.90;;;;;;5072900;28;20679;-82
2023/05/14 01:29:52;;;;;;;0.10;0.10;;;11.80;99.90;;;;;;5073242;28;20282;-81
2023/05/14 01:32:19;;;;;;;0.10;0.10;;;11.80;99.90;;;;;;5072326;28;20206;-82
2023/05/14 01:34:47;;;;;;;0.10;0.10;;;11.70;99.90;;;;;;5073231;28;20249;-82
2023/05/14 01:37:14;;;;;;;0.10;0.10;;;11.80;99.90;;;;;;5073503;28;20347;-82
2023/05/14 01:39:40;;;;;;;0.00;0.00;;;11.70;99.90;;;;;;5075860;28;20180;-81
2023/05/14 01:42:07;;;;;;;0.10;0.10;;;11.70;99.90;;;;;;5072641;28;20208;-82
2023/05/14 01:44:33;;;;;;;0.10;0.10;;;11.50;99.90;;;;;;5074663;28;20534;-82
2023/05/14 01:46:58;;;;;;;0.10;0.10;;;11.40;99.90;;;;;;5073668;28;20184;-82
2023/05/14 01:49:24;;;;;;;0.10;0.10;;;11.30;99.90;;;;;;5071131;28;20187;-82
2023/05/14 01:51:49;;;;;;;0.10;0.10;;;11.10;99.90;;;;;;5071719;28;20200;-83
2023/05/14 01:54:15;;;;;;;0.10;0.10;;;11.00;99.90;;;;;;5074734;28;20214;-82
2023/05/14 01:56:40;;;;;;;0.10;0.10;;;10.90;99.90;;;;;;5075817;28;20232;-82
2023/05/14 01:59:06;;;;;;;0.10;0.10;;;10.80;99.90;;;;;;5073689;28;20172;-82
2023/05/14 02:01:32;;;;;;;0.10;0.10;;;10.70;99.90;;;;;;5072293;28;20177;-82
2023/05/14 02:03:58;;;;;;;0.10;0.10;;;10.70;99.90;;;;;;5073008;28;20258;-82
2023/05/14 02:06:24;;;;;;;0.10;0.10;;;10.60;99.90;;;;;;5073566;28;20642;-82
2023/05/14 02:08:49;;;;;;;0.10;0.10;;;10.60;99.90;;;;;;5072588;28;20184;-82
2023/05/14 02:11:15;;;;;;;0.10;0.10;;;10.50;99.90;;;;;;5072947;28;20217;-82
2023/05/14 02:13:40;;;;;;;0.10;0.10;;;10.50;99.90;;;;;;5071909;28;20694;-82
2023/05/14 02:16:06;;;;;;;0.10;0.10;;;10.50;99.90;;;;;;5072715;28;20249;-81
2023/05/14 02:18:31;;;;;;;0.10;0.10;;;10.60;99.90;;;;;;5073763;28;21235;-82
2023/05/14 02:20:57;;;;;;;0.10;0.10;;;10.70;99.90;;;;;;5071987;28;20215;-82
2023/05/14 02:23:23;;;;;;;0.10;0.10;;;10.60;99.90;;;;;;5073534;28;20197;-82
2023/05/14 02:25:48;;;;;;;0.10;0.10;;;10.60;99.90;;;;;;5073856;28;20242;-82
2023/05/14 02:28:14;;;;;;;0.10;0.10;;;10.50;99.90;;;;;;5072553;28;20225;-82
2023/05/14 02:30:40;;;;;;;0.10;0.10;;;10.50;99.90;;;;;;5072914;28;20220;-82
2023/05/14 02:33:05;;;;;;;0.03;0.03;;;10.50;99.90;;;;;;5072057;28;20215;-81
2023/05/14 02:35:31;;;;;;;0.10;0.10;;;10.50;99.90;;;;;;5072362;28;20216;-82
2023/05/14 02:37:58;;;;;;;0.00;0.00;;;10.60;99.90;;;;;;5073082;28;20553;-82
2023/05/14 02:40:24;;;;;;;0.10;0.10;;;10.60;99.90;;;;;;5073606;28;20286;-82
2023/05/14 02:42:49;;;;;;;0.10;0.10;;;10.70;99.90;;;;;;5074180;28;20784;-81
2023/05/14 02:45:15;;;;;;;0.10;0.10;;;10.70;99.90;;;;;;5073843;28;20184;-82
2023/05/14 02:47:41;;;;;;;0.10;0.10;;;10.70;99.90;;;;;;5072030;28;20204;-82
2023/05/14 02:50:07;;;;;;;0.10;0.10;;;10.60;99.90;;;;;;5072019;28;20217;-82
2023/05/14 02:52:33;;;;;;;0.10;0.10;;;10.70;99.90;;;;;;5074313;28;20289;-81
2023/05/14 02:54:58;;;;;;;0.10;0.10;;;10.70;99.90;;;;;;5070481;28;20729;-82
2023/05/14 02:57:24;;;;;;;0.10;0.10;;;10.80;99.90;;;;;;5073279;28;20553;-82
2023/05/14 02:59:49;;;;;;;0.00;0.00;;;10.70;99.90;;;;;;5072363;28;20552;-82
2023/05/14 03:02:15;;;;;;;0.10;0.10;;;10.60;99.90;;;;;;5076072;28;20212;-82
2023/05/14 03:04:40;;;;;;;0.10;0.10;;;10.50;99.90;;;;;;5078479;28;20204;-82
2023/05/14 03:07:06;;;;;;;0.10;0.10;;;10.50;99.90;;;;;;5077480;28;20263;-82
2023/05/14 03:09:31;;;;;;;0.03;0.03;;;10.50;99.90;;;;;;5079093;28;20187;-82
2023/05/14 03:11:57;;;;;;;0.10;0.10;;;10.50;99.90;;;;;;5079672;28;20250;-83
2023/05/14 03:14:22;;;;;;;0.10;0.10;;;10.50;99.90;;;;;;5076401;28;20192;-81
2023/05/14 03:16:48;;;;;;;0.10;0.10;;;10.50;99.90;;;;;;5076993;28;20313;-82
2023/05/14 03:19:14;;;;;;;0.03;0.03;;;10.50;99.90;;;;;;5077838;28;20190;-81
2023/05/14 03:21:39;;;;;;;0.10;0.10;;;10.50;99.90;;;;;;5076288;28;20177;-82
2023/05/14 03:24:05;;;;;;;0.10;0.10;;;10.70;99.90;;;;;;5074812;28;20768;-82
2023/05/14 03:26:31;;;;;;;0.10;0.10;;;10.80;99.90;;;;;;5072818;28;20673;-82
2023/05/14 03:28:56;;;;;;;0.10;0.10;;;11.00;99.90;;;;;;5076543;28;20220;-82
2023/05/14 03:31:22;;;;;;;0.10;0.10;;;11.10;99.90;;;;;;5072350;28;20303;-83
2023/05/14 03:33:48;;;;;;;0.10;0.10;;;11.20;99.90;;;;;;5073179;28;20207;-82
2023/05/14 03:36:13;;;;;;;0.10;0.10;;;11.40;99.90;;;;;;5074474;28;20211;-82
2023/05/14 03:38:41;;;;;;;0.10;0.10;;;11.50;99.90;;;;;;5073261;28;20695;-82
2023/05/14 03:41:10;;;;;;;0.10;0.10;;;11.60;99.90;;;;;;5072796;28;20291;-81
2023/05/14 03:43:38;;;;;;;0.10;0.10;;;11.60;99.90;;;;;;5071018;28;20218;-83
2023/05/14 03:46:04;;;;;;;0.10;0.10;;;11.50;99.90;;;;;;5074789;28;20192;-83
2023/05/14 03:48:29;;;;;;;0.10;0.10;;;11.60;99.90;;;;;;5074166;28;20568;-82
2023/05/14 03:50:57;;;;;;;0.10;0.10;;;11.60;99.90;;;;;;5075232;28;20212;-83
2023/05/14 03:53:23;;;;;;;0.10;0.10;;;11.60;99.90;;;;;;5072359;28;20197;-82
2023/05/14 03:55:48;;;;;;;0.10;0.10;;;11.60;99.90;;;;;;5072485;28;20300;-81
2023/05/14 03:58:14;;;;;;;0.00;0.00;;;11.60;99.90;;;;;;5074515;28;20661;-82
2023/05/14 04:00:41;;;;;;;0.10;0.10;;;11.60;99.90;;;;;;5076916;28;20595;-82
2023/05/14 04:03:07;;;;;;;0.03;0.03;;;12.10;99.90;;;;;;5071631;28;20269;-82
2023/05/14 04:05:33;;;;;;;0.00;0.00;;;12.40;99.90;;;;;;5073096;28;20184;-81
2023/05/14 04:07:58;;;;;;;0.00;0.00;;;12.70;99.90;;;;;;5074674;28;20660;-82
2023/05/14 04:10:24;;;;;;;0.10;0.10;;;12.90;99.90;;;;;;5074916;28;20192;-83
2023/05/14 04:12:49;;;;;;;0.10;0.10;;;12.90;99.90;;;;;;5071049;28;20208;-82
2023/05/14 04:15:15;;;;;;;0.10;0.10;;;13.00;99.90;;;;;;5072684;28;20193;-83
2023/05/14 04:17:40;;;;;;;0.10;0.10;;;13.00;99.90;;;;;;5074069;28;20186;-82
2023/05/14 04:20:06;;;;;;;0.10;0.10;;;13.10;99.90;;;;;;5071943;28;20185;-82
2023/05/14 04:22:32;;;;;;;0.10;0.10;;;13.00;99.90;;;;;;5069431;28;20297;-82
2023/05/14 04:24:57;;;;;;;0.10;0.10;;;12.90;99.90;;;;;;5076078;28;20555;-82
2023/05/14 04:27:23;;;;;;;0.10;0.10;;;12.80;99.90;;;;;;5072526;28;20198;-82
2023/05/14 04:29:49;;;;;;;0.10;0.10;;;12.80;99.90;;;;;;5075140;28;20196;-82
2023/05/14 04:32:16;;;;;;;0.10;0.10;;;13.00;99.90;;;;;;5070350;28;21021;-82
2023/05/14 04:34:41;;;;;;;0.10;0.10;;;12.80;99.90;;;;;;5074719;28;21378;-82
2023/05/14 04:37:07;;;;;;;0.00;0.00;;;13.00;99.90;;;;;;5074116;28;20209;-82
2023/05/14 04:39:33;;;;;;;0.10;0.10;;;12.40;99.90;;;;;;5075315;28;20740;-82
2023/05/14 04:41:58;;;;;;;0.10;0.10;;;12.10;99.90;;;;;;5072896;28;20238;-81
2023/05/14 04:44:25;;;;;;;0.10;0.10;;;12.00;99.90;;;;;;5072044;28;20217;-81
2023/05/14 04:46:50;;;;;;;0.07;0.07;;;12.00;99.90;;;;;;5074322;28;20666;-83
2023/05/14 04:49:16;;;;;;;0.10;0.10;;;12.00;99.90;;;;;;5071911;28;20177;-82
2023/05/14 04:51:41;;;;;;;0.10;0.10;;;12.00;99.90;;;;;;5073173;28;20193;-83
2023/05/14 04:54:07;;;;;;;0.10;0.10;;;12.30;99.90;;;;;;5071643;28;20280;-82
2023/05/14 04:56:33;;;;;;;0.10;0.10;;;12.30;99.90;;;;;;5071150;28;21018;-83
2023/05/14 04:58:58;;;;;;;0.10;0.10;;;12.30;99.90;;;;;;5071658;28;21619;-82
2023/05/14 05:01:23;;;;;;;0.10;0.10;;;12.40;99.90;;;;;;5071776;28;20277;-82
2023/05/14 05:03:49;;;;;;;0.10;0.10;;;12.40;99.90;;;;;;5071883;28;20224;-82
2023/05/14 05:06:15;;;;;;;0.10;0.10;;;12.40;99.90;;;;;;5069401;28;20220;-82
2023/05/14 05:08:40;;;;;;;0.10;0.10;;;12.60;99.90;;;;;;5071417;28;21152;-83
2023/05/14 05:11:06;;;;;;;0.10;0.10;;;12.70;99.90;;;;;;5070953;28;20221;-84
2023/05/14 05:13:31;;;;;;;0.10;0.10;;;12.80;99.90;;;;;;5069906;28;20223;-84
2023/05/14 05:15:57;;;;;;;0.10;0.10;;;12.80;99.90;;;;;;5070954;28;20219;-82
2023/05/14 05:18:24;;;;;;;0.10;0.10;;;13.00;99.90;;;;;;5070099;28;20194;-84
2023/05/14 05:20:50;;;;;;;0.10;0.10;;;13.20;99.90;;;;;;5071842;28;20263;-83
2023/05/14 05:23:15;;;;;;;0.10;0.10;;;13.60;99.90;;;;;;5071161;28;20775;-82
2023/05/14 05:25:41;;;;;;;0.10;0.10;;;13.90;99.90;;;;;;5066848;28;20252;-83
2023/05/14 05:28:06;;;;;;;0.10;0.10;;;14.20;99.90;;;;;;5070560;28;20187;-83
2023/05/14 05:30:32;;;;;;;0.10;0.10;;;14.40;99.90;;;;;;5071355;28;20638;-84
2023/05/14 05:32:58;;;;;;;0.10;0.10;;;14.70;99.90;;;;;;5072355;28;20214;-82
2023/05/14 05:35:23;;;;;;;0.10;0.10;;;14.80;99.90;;;;;;5071127;28;20196;-83
2023/05/14 05:37:49;;;;;;;0.03;0.03;;;14.70;99.90;;;;;;5076551;28;21094;-83
2023/05/14 05:40:14;;;;;;;0.10;0.10;;;14.60;99.90;;;;;;5070284;28;20397;-83
2023/05/14 05:42:40;;;;;;;0.10;0.10;;;14.60;99.90;;;;;;5070533;28;20333;-85
2023/05/14 05:45:07;;;;;;;0.10;0.10;;;14.60;99.90;;;;;;5071545;28;20187;-85
2023/05/14 05:47:32;;;;;;;0.10;0.10;;;14.80;99.90;;;;;;5073137;28;20229;-85
2023/05/14 05:49:59;;;;;;;0.10;0.10;;;15.40;99.90;;;;;;5069345;28;20596;-85
2023/05/14 05:52:25;;;;;;;0.10;0.10;;;15.80;99.90;;;;;;5068697;28;20211;-85
2023/05/14 05:54:51;;;;;;;0.10;0.10;;;16.10;99.90;;;;;;5066568;28;20298;-85
2023/05/14 05:57:18;;;;;;;0.10;0.10;;;16.10;99.90;;;;;;5071450;28;20208;-84
2023/05/14 05:59:46;;;;;;;0.10;0.10;;;15.70;99.90;;;;;;5071926;28;20176;-85
2023/05/14 06:02:12;;;;;;;0.10;0.10;;;15.60;99.90;;;;;;5072358;28;20196;-85
2023/05/14 06:04:37;;;;;;;0.10;0.10;;;15.80;99.90;;;;;;5070122;28;20207;-85
2023/05/14 06:07:03;;;;;;;0.10;0.10;;;15.70;99.90;;;;;;5074129;28;20177;-85
2023/05/14 06:09:29;;;;;;;0.10;0.10;;;15.90;99.90;;;;;;5070822;28;20196;-85
2023/05/14 06:11:54;;;;;;;0.10;0.10;;;15.70;99.90;;;;;;5070041;28;20219;-86
2023/05/14 06:14:20;;;;;;;0.10;0.10;;;15.80;99.90;;;;;;5071206;28;20562;-84
2023/05/14 06:16:45;;;;;;;0.10;0.10;;;15.90;99.90;;;;;;5072418;28;20227;-83
2023/05/14 06:19:11;;;;;;;0.10;0.10;;;15.60;99.90;;;;;;5070318;28;20181;-82
2023/05/14 06:21:36;;;;;;;0.10;0.10;;;15.60;99.90;;;;;;5070433;28;20194;-82
2023/05/14 06:24:02;;;;;;;0.10;0.10;;;15.30;99.90;;;;;;5075833;28;20212;-83
2023/05/14 06:26:28;;;;;;;0.10;0.10;;;15.40;99.90;;;;;;5073900;28;20197;-82
2023/05/14 06:28:53;;;;;;;0.10;0.10;;;15.30;99.90;;;;;;5072194;28;20189;-82
2023/05/14 06:31:19;;;;;;;0.10;0.10;;;15.50;99.90;;;;;;5067087;28;20188;-83
2023/05/14 06:33:45;;;;;;;4.90;4.53;;;15.80;99.90;;;;;;5071734;28;20209;-83
2023/05/14 06:36:10;;;;;;;0.07;0.07;;;16.20;99.90;;;;;;5078232;28;20205;-82
2023/05/14 06:38:36;;;;;;;0.10;0.10;;;16.10;99.90;;;;;;5077943;28;20219;-84
2023/05/14 06:41:02;;;;;;;0.10;0.10;;;16.10;99.90;;;;;;5075286;28;20185;-82
2023/05/14 06:43:28;;;;;;;0.10;0.10;;;15.90;99.90;;;;;;5077056;28;20715;-82
2023/05/14 06:45:53;;;;;;;0.10;0.10;;;16.30;99.90;;;;;;5072879;28;20198;-82
2023/05/14 06:48:20;;;;;;;0.10;0.10;;;16.40;99.90;;;;;;5076216;28;20213;-83
2023/05/14 06:50:46;;;;;;;0.10;0.10;;;16.50;99.90;;;;;;5077755;28;20656;-83
2023/05/14 06:53:12;;;;;;;0.10;0.10;;;16.40;99.90;;;;;;5078368;28;20205;-82
2023/05/14 06:55:37;;;;;;;0.10;0.10;;;16.20;99.90;;;;;;5077890;28;20204;-83
2023/05/14 06:58:05;;;;;;;0.10;0.10;;;16.60;99.90;;;;;;5077515;28;20187;-82
2023/05/14 07:00:31;;;;;;;0.10;0.10;;;17.10;99.90;;;;;;5075770;28;20208;-83
2023/05/14 07:02:56;;;;;;;0.10;0.10;;;17.00;99.90;;;;;;5077561;28;20728;-83
2023/05/14 07:05:23;;;;;;;0.10;0.10;;;16.40;99.90;;;;;;5075514;28;20263;-83
2023/05/14 07:07:49;;;;;;;0.10;0.10;;;16.20;99.90;;;;;;5074737;28;20556;-83
2023/05/14 07:10:15;;;;;;;0.10;0.10;;;16.10;99.90;;;;;;5076940;28;20181;-83
2023/05/14 07:12:41;;;;;;;0.10;0.10;;;16.10;99.90;;;;;;5074548;28;20205;-83
2023/05/14 07:15:07;;;;;;;0.10;0.10;;;16.20;99.90;;;;;;5073713;28;20176;-83
2023/05/14 07:17:33;;;;;;;0.10;0.10;;;16.10;99.90;;;;;;5075446;28;20299;-83
2023/05/14 07:19:58;;;;;;;0.10;0.10;;;15.90;99.90;;;;;;5070247;28;20491;-83
2023/05/14 07:22:24;;;;;;;0.10;0.10;;;15.70;99.90;;;;;;5072695;28;20201;-82
2023/05/14 07:24:49;;;;;;;0.10;0.10;;;16.20;99.90;;;;;;5073288;28;20188;-82
2023/05/14 07:27:16;;;;;;;0.10;0.10;;;16.40;99.90;;;;;;5074811;28;20191;-82
2023/05/14 07:29:42;;;;;;;0.10;0.10;;;16.50;99.90;;;;;;5072750;28;20708;-83
2023/05/14 07:32:07;;;;;;;0.10;0.10;;;16.50;99.90;;;;;;5071491;28;20823;-83
2023/05/14 07:34:33;;;;;;;0.10;0.10;;;16.80;99.90;;;;;;5073684;28;20193;-85
2023/05/14 07:36:58;;;;;;;0.10;0.10;;;17.00;99.90;;;;;;5069437;28;20220;-84
2023/05/14 07:39:24;;;;;;;0.10;0.10;;;16.90;99.90;;;;;;5070430;28;20189;-84
2023/05/14 07:41:50;;;;;;;0.10;0.10;;;17.00;99.90;;;;;;5075381;28;20200;-84
2023/05/14 07:44:15;;;;;;;0.10;0.10;;;17.10;99.90;;;;;;5075810;28;20185;-83
2023/05/14 07:46:41;;;;;;;0.10;0.10;;;17.10;99.90;;;;;;5074635;28;20189;-83
2023/05/14 07:49:07;;;;;;;0.10;0.10;;;17.40;99.90;;;;;;5073602;28;20189;-82
2023/05/14 07:51:32;;;;;;;0.10;0.10;;;17.20;99.90;;;;;;5075753;28;20197;-83
2023/05/14 07:53:58;;;;;;;0.10;0.10;;;16.90;99.90;;;;;;5075378;28;20237;-83
2023/05/14 07:56:23;;;;;;;0.10;0.10;;;17.10;99.90;;;;;;5074430;28;20208;-82
2023/05/14 07:58:50;;;;;;;0.10;0.10;;;16.90;99.90;;;;;;5075455;28;20606;-84
2023/05/14 08:01:16;;;;;;;0.10;0.10;;;17.20;99.90;;;;;;5073815;28;20211;-83
2023/05/14 08:03:41;;;;;;;0.10;0.10;;;17.50;99.90;;;;;;5076166;28;20252;-83
2023/05/14 08:06:07;;;;;;;0.10;0.10;;;18.10;99.90;;;;;;5075465;28;20197;-83
2023/05/14 08:08:32;;;;;;;0.10;0.10;;;18.40;99.90;;;;;;5076175;28;20180;-83
2023/05/14 08:10:58;;;;;;;0.10;0.10;;;19.20;99.90;;;;;;5073177;28;20228;-83
2023/05/14 08:13:24;;;;;;;0.10;0.10;;;19.70;99.90;;;;;;5076304;28;20670;-82
2023/05/14 08:15:50;;;;;;;0.10;0.10;;;20.10;99.90;;;;;;5056539;28;20239;-83
2023/05/14 08:18:15;;;;;;;0.10;0.10;;;19.10;99.90;;;;;;5076010;28;20688;-83
2023/05/14 08:20:41;;;;;;;0.10;0.10;;;18.60;99.90;;;;;;5073817;28;20226;-84
2023/05/14 08:23:08;;;;;;;0.10;0.10;;;18.80;99.90;;;;;;5070661;28;20213;-81
2023/05/14 08:25:33;;;;;;;0.10;0.10;;;18.80;99.90;;;;;;5074841;28;20185;-81
2023/05/14 08:28:00;;;;;;;0.10;0.10;;;18.50;99.90;;;;;;5074013;28;20555;-81
2023/05/14 08:30:25;;;;;;;0.10;0.10;;;18.90;99.90;;;;;;5064314;28;20243;-82
2023/05/14 08:32:51;;;;;;;0.10;0.10;;;19.00;99.90;;;;;;5067485;28;20208;-84
2023/05/14 08:35:17;;;;;;;0.10;0.10;;;19.50;99.90;;;;;;5074324;28;20261;-83
2023/05/14 08:37:43;;;;;;;0.10;0.10;;;19.40;99.90;;;;;;5072842;28;20193;-82
2023/05/14 08:40:10;;;;;;;0.10;0.10;;;19.00;99.90;;;;;;5073336;28;20257;-82
2023/05/14 08:42:39;;;;;;;0.10;0.10;;;18.70;99.90;;;;;;5070198;28;20218;-81
2023/05/14 08:45:12;;;;;;;0.10;0.10;;;18.80;99.90;;;;;;5073675;28;20184;-82
2023/05/14 08:47:37;;;;;;;0.10;0.10;;;19.40;99.90;;;;;;5068796;28;20184;-81
2023/05/14 08:50:05;;;;;;;0.10;0.10;;;19.20;99.90;;;;;;5071715;28;20596;-82
2023/05/14 08:52:31;;;;;;;0.10;0.10;;;19.30;99.90;;;;;;5072224;28;20272;-82
2023/05/14 08:55:04;;;;;;;0.10;0.10;;;19.40;99.90;;;;;;5072739;28;20195;-82
2023/05/14 08:57:31;;;;;;;0.10;0.10;;;19.60;99.90;;;;;;5070484;28;20210;-82
2023/05/14 08:59:57;;;;;;;0.10;0.10;;;19.50;99.90;;;;;;5068497;28;20188;-81
2023/05/14 09:02:28;;;;;;;0.10;0.10;;;19.90;99.90;;;;;;5073325;28;20567;-81
2023/05/14 09:04:58;;;;;;;0.10;0.10;;;19.80;99.90;;;;;;5072383;28;20184;-82
2023/05/14 09:07:24;;;;;;;0.10;0.10;;;19.40;99.90;;;;;;5075612;28;20669;-82
2023/05/14 09:09:51;;;;;;;0.10;0.10;;;19.30;99.90;;;;;;5058873;28;20191;-83
2023/05/14 09:12:17;;;;;;;0.10;0.10;;;19.10;99.90;;;;;;5071578;28;20228;-82
2023/05/14 09:14:43;;;;;;;0.10;0.10;;;19.30;99.90;;;;;;5073063;28;20547;-82
2023/05/14 09:17:11;;;;;;;0.10;0.10;;;19.10;99.90;;;;;;5071169;28;20208;-82
2023/05/14 09:19:39;;;;;;;0.10;0.10;;;19.10;99.90;;;;;;5077567;28;20178;-81
2023/05/14 09:22:08;;;;;;;0.10;0.10;;;19.00;99.90;;;;;;5077547;28;20201;-81
2023/05/14 09:24:33;;;;;;;0.10;0.10;;;19.30;99.90;;;;;;5083020;28;20185;-81
2023/05/14 09:27:00;;;;;;;0.10;0.10;;;19.30;99.90;;;;;;5078782;28;20657;-81
2023/05/14 09:29:28;;;;;;;0.10;0.10;;;18.70;99.90;;;;;;5079808;28;20188;-83
2023/05/14 09:31:55;;;;;;;0.10;0.10;;;18.70;99.90;;;;;;5076019;28;20208;-82
2023/05/14 09:34:23;;;;;;;0.10;0.10;;;18.80;99.90;;;;;;5076769;28;20221;-81
2023/05/14 09:36:49;;;;;;;0.10;0.10;;;18.80;99.90;;;;;;5074596;28;20265;-81
2023/05/14 09:39:14;;;;;;;0.10;0.10;;;18.80;99.90;;;;;;5074160;28;20177;-83
2023/05/14 09:41:40;;;;;;;0.10;0.10;;;19.00;99.90;;;;;;5067543;28;20279;-82
2023/05/14 09:44:06;;;;;;;0.10;0.10;;;18.90;99.90;;;;;;5077145;28;20526;-82
2023/05/14 09:46:31;;;;;;;0.10;0.10;;;18.80;99.90;;;;;;5076399;28;20232;-83
2023/05/14 09:48:57;;;;;;;0.10;0.10;;;19.30;99.90;;;;;;5078022;28;20185;-82
2023/05/14 09:51:23;;;;;;;0.10;0.10;;;18.90;99.90;;;;;;5075603;28;20192;-82
2023/05/14 09:53:52;;;;;;;0.10;0.10;;;19.10;99.90;;;;;;5072865;28;20331;-82
2023/05/14 09:56:17;;;;;;;0.10;0.10;;;19.10;99.90;;;;;;5085114;28;20219;-82
2023/05/14 09:58:43;;;;;;;0.10;0.10;;;19.40;99.90;;;;;;5071935;28;20574;-81
2023/05/14 10:01:08;;;;;;;0.10;0.10;;;19.50;99.90;;;;;;5079594;28;20180;-81
2023/05/14 10:03:34;;;;;;;0.10;0.10;;;19.40;99.90;;;;;;5072054;28;20240;-82
2023/05/14 10:06:04;;;;;;;0.10;0.10;;;19.20;99.90;;;;;;5065920;28;20216;-83
2023/05/14 10:08:34;;;;;;;0.33;0.33;;;18.90;99.90;;;;;;5073605;28;20658;-82
2023/05/14 10:11:04;;;;;;;0.10;0.10;;;18.90;99.90;;;;;;5068897;28;20188;-82
2023/05/14 10:13:34;;;;;;;0.10;0.10;;;19.40;99.90;;;;;;5079117;28;20203;-81
2023/05/14 10:16:20;;;;;;;0.10;0.10;;;19.40;99.90;;;;;;5078170;28;20197;-81
2023/05/14 10:18:51;;;;;;;0.53;0.53;;;19.70;99.90;;;;;;5074671;28;20681;-82
2023/05/14 10:21:20;;;;;;;0.10;0.10;;;19.50;99.90;;;;;;5071216;28;20208;-83
2023/05/14 10:23:47;;;;;;;0.10;0.10;;;19.30;99.90;;;;;;5055998;28;20201;-82
2023/05/14 10:26:13;;;;;;;0.20;0.20;;;19.20;99.90;;;;;;5070476;28;20184;-81
2023/05/14 10:28:39;;;;;;;0.10;0.10;;;19.10;99.90;;;;;;5072027;28;20188;-81
2023/05/14 10:31:08;;;;;;;0.10;0.10;;;19.70;99.90;;;;;;5072455;28;20199;-81
2023/05/14 10:33:47;;;;;;;0.23;0.23;;;19.90;99.90;;;;;;5072081;28;20213;-82
2023/05/14 10:36:12;;;;;;;0.10;0.10;;;19.90;99.90;;;;;;5069958;28;20207;-82
2023/05/14 10:38:38;;;;;;;0.10;0.10;;;19.80;99.90;;;;;;5070380;28;20192;-82
2023/05/14 10:41:05;;;;;;;0.10;0.10;;;20.00;99.90;;;;;;5073540;28;20199;-83
2023/05/14 10:43:38;;;;;;;0.10;0.10;;;19.90;99.90;;;;;;5076104;28;20242;-82
2023/05/14 10:46:05;;;;;;;0.10;0.10;;;20.40;99.90;;;;;;5072960;28;20197;-81
2023/05/14 10:48:31;;;;;;;0.10;0.10;;;20.00;99.90;;;;;;5071740;28;20285;-81
2023/05/14 10:50:58;;;;;;;0.10;0.10;;;20.20;99.90;;;;;;5073559;28;20774;-82
2023/05/14 10:53:33;;;;;;;0.10;0.10;;;19.90;99.90;;;;;;5073095;28;20217;-82
2023/05/14 10:56:20;;;;;;;0.10;0.10;;;19.80;99.90;;;;;;5068699;28;20219;-81
2023/05/14 10:58:49;;;;;;;0.10;0.10;;;19.50;99.90;;;;;;5084088;28;20639;-83
2023/05/14 11:01:14;;;;;;;0.20;0.20;;;19.40;99.90;;;;;;5070718;28;20180;-82
2023/05/14 11:03:45;;;;;;;0.10;0.10;;;19.60;99.90;;;;;;5070885;28;20276;-82
2023/05/14 11:06:12;;;;;;;0.10;0.10;;;19.10;99.90;;;;;;5066029;28;20185;-83
2023/05/14 11:08:38;;;;;;;0.10;0.10;;;19.30;99.90;;;;;;5068128;28;20257;-84
2023/05/14 11:11:05;;;;;;;0.10;0.10;;;18.80;99.90;;;;;;5067321;28;20192;-85
2023/05/14 11:13:33;;;;;;;0.10;0.10;;;18.70;99.90;;;;;;5069313;28;20282;-85
2023/05/14 11:16:00;;;;;;;0.10;0.10;;;18.60;99.90;;;;;;5072242;28;20920;-85
2023/05/14 11:18:27;;;;;;;0.10;0.10;;;19.10;99.90;;;;;;5068995;28;20185;-85
2023/05/14 11:20:56;;;;;;;0.10;0.10;;;19.10;99.90;;;;;;5071415;28;20232;-85
2023/05/14 11:23:23;;;;;;;0.10;0.10;;;19.20;99.90;;;;;;5072959;28;20574;-85
2023/05/14 11:25:51;;;;;;;0.10;0.10;;;19.20;99.90;;;;;;5075304;28;20552;-85
2023/05/14 11:28:17;;;;;;;0.97;0.97;;;19.60;99.90;;;;;;5073239;28;20281;-85
2023/05/14 11:30:44;;;;;;;0.10;0.10;;;19.20;99.90;;;;;;5074383;28;20217;-86
2023/05/14 11:33:09;;;;;;;0.10;0.10;;;19.60;99.90;;;;;;5073064;28;20209;-86
2023/05/14 11:35:36;;;;;;;0.10;0.10;;;19.30;99.90;;;;;;5073389;28;21010;-86
2023/05/14 11:38:01;;;;;;;0.10;0.10;;;19.50;99.90;;;;;;5077047;28;20191;-84
2023/05/14 11:40:27;;;;;;;0.10;0.10;;;19.40;99.90;;;;;;5082123;28;20197;-85
2023/05/14 11:42:53;;;;;;;0.10;0.10;;;19.30;99.90;;;;;;5076019;28;20304;-83
2023/05/14 11:45:26;;;;;;;0.10;0.10;;;20.00;99.90;;;;;;5080533;28;21120;-82
2023/05/14 11:47:55;;;;;;;0.30;0.30;;;20.10;99.90;;;;;;5074484;28;20215;-84
2023/05/14 11:50:23;;;;;;;0.10;0.10;;;20.00;99.90;;;;;;5075481;28;20180;-85
2023/05/14 11:52:49;;;;;;;0.10;0.10;;;19.60;99.90;;;;;;5090674;28;20693;-85
2023/05/14 11:55:16;;;;;;;0.10;0.10;;;19.70;99.90;;;;;;5072148;28;20234;-85
2023/05/14 11:57:42;;;;;;;0.10;0.10;;;19.70;99.90;;;;;;5074481;28;20216;-86
2023/05/14 12:00:13;;;;;;;0.10;0.10;;;19.60;99.90;;;;;;5075170;28;20192;-85
2023/05/14 12:02:39;;;;;;;0.10;0.10;;;19.40;99.90;;;;;;5073583;28;20204;-85
2023/05/14 12:05:10;;;;;;;0.10;0.10;;;19.80;99.90;;;;;;5073604;28;20248;-85
2023/05/14 12:07:36;;;;;;;0.10;0.10;;;19.70;99.90;;;;;;5073886;28;20188;-85
2023/05/14 12:10:02;;;;;;;0.10;0.10;;;19.70;99.90;;;;;;5076853;28;20249;-87
2023/05/14 12:12:34;;;;;;;0.10;0.10;;;19.70;99.90;;;;;;5086181;28;20208;-87
2023/05/14 12:15:00;;;;;;;0.10;0.10;;;19.40;99.90;;;;;;5081980;28;20204;-83
2023/05/14 12:17:25;;;;;;;0.10;0.10;;;19.80;99.90;;;;;;5079270;28;20204;-83
2023/05/14 12:19:51;;;;;;;0.10;0.10;;;20.00;99.90;;;;;;5079058;28;20189;-85
2023/05/14 12:22:20;;;;;;;0.10;0.10;;;20.10;99.90;;;;;;5075188;28;20207;-83
2023/05/14 12:24:56;;;;;;;0.10;0.10;;;20.80;99.90;;;;;;5077821;28;20189;-83
2023/05/14 12:27:23;;;;;;;0.10;0.10;;;21.30;99.90;;;;;;5075124;28;20894;-83
2023/05/14 12:29:56;;;;;;;0.10;0.10;;;22.10;99.90;;;;;;5075593;28;20191;-83
2023/05/14 12:32:25;;;;;;;0.10;0.10;;;21.60;99.90;;;;;;5075419;28;20294;-84
2023/05/14 12:34:50;;;;;;;0.10;0.10;;;21.50;99.90;;;;;;5075732;28;20267;-84
2023/05/14 12:37:17;;;;;;;0.10;0.10;;;22.00;99.90;;;;;;5075105;28;20296;-83
2023/05/14 12:39:42;;;;;;;0.10;0.10;;;21.90;99.90;;;;;;5074196;28;20185;-83
2023/05/14 12:42:08;;;;;;;0.10;0.10;;;21.20;99.90;;;;;;5072635;28;20596;-84
2023/05/14 12:44:33;;;;;;;0.10;0.10;;;21.10;99.90;;;;;;5071224;28;20189;-84